Time;durP1;ratioP1;P1;durP2;ratioP2;P2;SDS_P1;SDS_P2;PMS_P1;PMS_P2;Temp;Humidity;BMP_temperature;BMP_pressure;BME280_temperature;BME280_humidity;BME280_pressure;Samples;Min_cycle;Max_cycle;Signal;HPM_P1;HPM_P2
2022/09/14 00:01:09;;;;;;;11.30;10.17;;;17.40;99.90;;;17.96;83.05;97208.16;5002005;28;20542;-79
2022/09/14 00:03:36;;;;;;;10.63;9.73;;;17.40;99.90;;;17.76;84.21;97217.31;5003256;28;20462;-78
2022/09/14 00:06:06;;;;;;;10.87;9.67;;;17.30;99.90;;;17.78;83.89;97201.44;5010531;28;20465;-75
2022/09/14 00:08:39;;;;;;;11.13;10.07;;;17.30;99.90;;;17.54;82.98;97153.78;5008358;28;20909;-79
2022/09/14 00:11:10;;;;;;;10.90;9.20;;;17.30;99.70;;;17.91;82.72;97205.47;5005384;28;20455;-77
2022/09/14 00:13:39;;;;;;;10.10;9.10;;;17.30;99.40;;;17.89;82.99;97202.19;5005228;28;20447;-78
2022/09/14 00:16:10;;;;;;;10.93;10.00;;;17.30;99.50;;;17.83;83.49;97206.88;5001186;28;20468;-78
2022/09/14 00:18:38;;;;;;;12.43;10.03;;;17.30;99.90;;;17.97;82.53;97190.69;5008613;28;20463;-78
2022/09/14 00:21:07;;;;;;;10.00;8.90;;;17.30;99.90;;;17.77;82.49;97156.91;5001306;28;20840;-78
2022/09/14 00:23:38;;;;;;;11.87;9.77;;;17.30;99.60;;;17.84;83.20;97190.22;5001933;28;20456;-78
2022/09/14 00:26:08;;;;;;;11.27;10.17;;;17.30;99.70;;;17.79;83.65;97184.75;5003206;28;20464;-77
2022/09/14 00:28:38;;;;;;;11.10;10.10;;;17.30;99.90;;;17.66;83.77;97169.00;5022491;28;20988;-78
2022/09/14 00:31:07;;;;;;;10.37;9.33;;;17.20;99.90;;;17.53;84.28;97163.09;5008898;28;20470;-80
2022/09/14 00:33:36;;;;;;;11.03;9.90;;;17.10;99.90;;;17.52;84.56;97157.88;5008627;28;20455;-79
2022/09/14 00:36:09;;;;;;;9.93;8.93;;;17.10;99.90;;;17.68;84.01;97175.00;5000646;28;20456;-80
2022/09/14 00:38:39;;;;;;;11.20;10.20;;;17.10;99.90;;;17.74;83.78;97173.88;5023917;28;20817;-80
2022/09/14 00:41:10;;;;;;;11.13;10.03;;;17.00;99.90;;;17.88;83.25;97173.25;5006623;28;20484;-78
2022/09/14 00:43:53;;;;;;;11.30;9.30;;;17.10;99.90;;;18.05;83.09;97170.97;5005230;28;20531;-77
2022/09/14 00:46:21;;;;;;;11.50;9.93;;;17.20;99.90;;;18.01;83.00;97158.94;5005381;28;20471;-79
2022/09/14 00:48:49;;;;;;;10.53;9.60;;;17.40;99.90;;;18.19;82.41;97162.09;5026544;28;20488;-75
2022/09/14 00:51:17;;;;;;;10.30;9.50;;;17.50;99.30;;;18.06;82.82;97158.91;5007690;28;20955;-79
2022/09/14 00:53:46;;;;;;;10.70;9.70;;;17.50;99.90;;;18.17;82.24;97151.44;5012469;28;20958;-78
2022/09/14 00:56:14;;;;;;;10.27;9.27;;;17.50;99.90;;;18.07;82.85;97144.16;5007809;28;20475;-78
2022/09/14 00:58:44;;;;;;;9.97;9.03;;;17.50;99.80;;;17.86;83.15;97142.66;5006488;28;20475;-79
2022/09/14 01:01:12;;;;;;;10.10;9.20;;;17.40;99.50;;;17.94;83.27;97155.69;5005641;28;20490;-80
2022/09/14 01:03:40;;;;;;;14.43;9.63;;;17.40;99.50;;;17.91;83.21;97139.88;5004873;28;20485;-78
2022/09/14 01:06:16;;;;;;;11.03;10.13;;;17.30;99.80;;;17.90;83.18;97149.19;5008091;28;20494;-77
2022/09/14 01:09:14;;;;;;;10.50;9.50;;;17.30;99.90;;;17.80;83.36;97139.94;5005193;28;20590;-81
2022/09/14 01:12:11;;;;;;;10.63;9.73;;;17.30;99.90;;;17.55;84.88;97135.47;5004883;28;22489;-80
2022/09/14 01:14:47;;;;;;;9.87;9.17;;;17.10;99.90;;;17.50;84.77;97125.41;5013667;28;20575;-75
2022/09/14 01:17:24;;;;;;;10.23;9.40;;;17.10;99.90;;;17.45;85.23;97122.69;5026468;28;20465;-75
2022/09/14 01:20:10;;;;;;;9.67;8.87;;;17.00;99.90;;;17.49;86.05;97112.84;5005490;28;20470;-77
2022/09/14 01:22:46;;;;;;;11.77;9.13;;;16.90;99.90;;;17.72;85.14;97115.97;5014912;28;20455;-78
2022/09/14 01:25:41;;;;;;;8.63;7.93;;;17.00;99.90;;;18.10;83.03;97091.66;5012224;28;20505;-79
2022/09/14 01:28:15;;;;;;;9.17;8.27;;;17.20;99.90;;;18.21;82.02;97099.75;5003577;28;20466;-78
2022/09/14 01:30:44;;;;;;;8.00;7.30;;;17.50;99.40;;;18.50;80.42;97104.41;4999895;28;21029;-78
2022/09/14 01:33:16;;;;;;;8.80;7.90;;;17.80;96.90;;;18.68;78.76;97113.78;5004110;28;20464;-78
2022/09/14 01:35:51;;;;;;;8.53;7.80;;;18.10;95.30;;;18.50;79.33;97102.50;5001443;28;20458;-79
2022/09/14 01:38:23;;;;;;;11.57;8.07;;;17.90;95.20;;;18.71;78.86;97112.38;5004127;28;20961;-77
2022/09/14 01:40:51;;;;;;;8.87;7.83;;;18.00;95.50;;;18.85;78.11;97104.31;5002356;28;20498;-76
2022/09/14 01:43:25;;;;;;;9.97;8.80;;;18.10;95.00;;;18.93;77.88;97087.22;5019472;28;20505;-79
2022/09/14 01:45:56;;;;;;;7.73;7.00;;;18.20;95.00;;;18.87;77.61;97085.66;5017188;28;20501;-78
2022/09/14 01:48:34;;;;;;;8.27;7.47;;;18.20;94.60;;;18.65;78.85;97093.28;5002747;28;21008;-76
2022/09/14 01:51:09;;;;;;;9.60;8.53;;;18.10;94.80;;;18.52;79.23;97089.34;5005093;28;21059;-81
2022/09/14 01:53:42;;;;;;;9.77;8.97;;;18.10;95.10;;;18.32;80.46;97090.38;4999764;28;20544;-80
2022/09/14 01:56:19;;;;;;;9.63;8.63;;;17.90;96.20;;;18.09;82.31;97100.94;5014224;28;20506;-81
2022/09/14 01:58:51;;;;;;;11.23;10.00;;;17.60;97.90;;;17.89;83.43;97095.63;5016834;28;20453;-81
2022/09/14 02:01:25;;;;;;;10.47;9.57;;;17.50;98.90;;;17.63;85.08;97095.81;5004590;28;20481;-81
2022/09/14 02:03:58;;;;;;;11.47;10.43;;;17.20;99.90;;;17.59;85.76;97101.06;5002090;28;21034;-80
2022/09/14 02:06:32;;;;;;;11.17;9.23;;;17.00;99.90;;;17.61;86.39;97092.56;4997282;28;20470;-77
2022/09/14 02:09:00;;;;;;;10.50;9.43;;;17.00;99.90;;;17.33;87.27;97084.84;5004988;28;20460;-77
2022/09/14 02:11:27;;;;;;;11.70;10.60;;;16.80;99.90;;;17.49;87.12;97091.00;5004823;28;20484;-76
2022/09/14 02:13:56;;;;;;;11.33;10.43;;;16.80;99.90;;;17.37;87.79;97088.63;5005040;28;20466;-73
2022/09/14 02:16:24;;;;;;;11.10;10.00;;;16.70;99.90;;;17.41;87.66;97083.41;5018533;28;20486;-77
2022/09/14 02:18:52;;;;;;;11.17;9.90;;;16.60;99.90;;;17.47;87.24;97079.53;5005098;28;20568;-76
2022/09/14 02:21:25;;;;;;;11.77;10.60;;;16.70;99.90;;;17.49;87.60;97073.81;5001457;28;20584;-79
2022/09/14 02:23:53;;;;;;;12.40;10.87;;;16.70;99.90;;;17.34;87.60;97078.28;5003655;28;20575;-79
2022/09/14 02:26:23;;;;;;;12.10;10.70;;;16.70;99.90;;;17.31;88.80;97078.84;5012460;28;20464;-78
2022/09/14 02:28:54;;;;;;;12.63;11.53;;;16.70;99.90;;;17.36;88.99;97069.78;5011671;28;20840;-77
2022/09/14 02:31:34;;;;;;;11.77;10.47;;;16.70;99.90;;;17.13;88.67;97029.25;5023701;28;20495;-77
2022/09/14 02:34:09;;;;;;;10.87;9.87;;;16.70;99.90;;;17.21;89.46;97062.53;5010176;28;20467;-77
2022/09/14 02:36:48;;;;;;;11.93;10.90;;;16.70;99.90;;;17.32;88.92;97046.88;5015708;28;20463;-78
2022/09/14 02:39:27;;;;;;;12.30;11.10;;;16.70;99.90;;;17.17;89.14;97029.50;5021398;28;20534;-78
2022/09/14 02:42:12;;;;;;;11.90;10.90;;;16.70;99.90;;;17.08;89.50;97014.84;5037184;28;20459;-77
2022/09/14 02:44:48;;;;;;;13.13;10.77;;;16.60;99.90;;;17.31;89.40;97017.97;5008609;28;20460;-80
2022/09/14 02:47:26;;;;;;;12.70;11.50;;;16.60;99.90;;;17.40;88.03;97010.81;5008288;28;20455;-78
2022/09/14 02:50:08;;;;;;;12.23;11.00;;;16.60;99.90;;;17.36;88.32;97013.28;5005030;28;20498;-78
2022/09/14 02:52:43;;;;;;;11.10;10.13;;;16.60;99.90;;;17.38;88.23;96991.19;5006054;28;20473;-79
2022/09/14 02:55:16;;;;;;;12.47;11.00;;;16.60;99.90;;;17.26;89.25;96995.06;5000564;28;20540;-79
2022/09/14 02:58:05;;;;;;;12.57;11.37;;;16.60;99.90;;;17.34;88.73;97001.00;5008700;28;20525;-80
2022/09/14 03:00:36;;;;;;;11.77;10.70;;;16.60;99.90;;;17.32;88.92;97006.78;5006155;28;20565;-80
2022/09/14 03:03:06;;;;;;;12.23;11.03;;;16.60;99.90;;;17.31;89.23;96998.84;5008943;28;20454;-80
2022/09/14 03:05:37;;;;;;;12.40;11.30;;;16.60;99.90;;;17.31;89.06;96996.13;5009736;28;20516;-80
2022/09/14 03:08:05;;;;;;;11.73;10.73;;;16.60;99.90;;;17.24;89.55;96999.19;5019099;28;20471;-80
2022/09/14 03:10:33;;;;;;;10.70;9.70;;;16.70;99.90;;;17.51;88.85;97017.81;5001755;28;20496;-79
2022/09/14 03:13:01;;;;;;;11.97;10.80;;;16.70;99.90;;;17.49;88.32;97014.53;5010142;28;20493;-79
2022/09/14 03:15:29;;;;;;;13.17;11.90;;;16.70;99.90;;;17.49;88.62;97025.47;5009577;28;20575;-75
2022/09/14 03:17:56;;;;;;;10.20;9.30;;;16.80;99.90;;;17.62;87.31;97034.13;5017440;28;20487;-77
2022/09/14 03:20:27;;;;;;;20.43;10.47;;;16.80;99.90;;;17.90;86.22;97048.09;5019096;28;20475;-77
2022/09/14 03:22:55;;;;;;;14.33;9.90;;;17.00;99.90;;;17.78;85.88;97071.13;5031486;28;20452;-80
2022/09/14 03:25:22;;;;;;;13.47;10.50;;;17.10;99.90;;;17.40;87.07;97032.66;5006822;28;20579;-81
2022/09/14 03:27:55;;;;;;;11.17;10.17;;;17.10;99.90;;;17.96;85.88;97091.47;5010014;28;20515;-81
2022/09/14 03:30:22;;;;;;;11.57;10.57;;;17.20;99.90;;;17.91;86.00;97085.25;5021038;28;20482;-79
2022/09/14 03:32:51;;;;;;;10.30;9.40;;;17.20;99.90;;;17.77;85.82;97080.44;5008855;28;20543;-81
2022/09/14 03:35:19;;;;;;;12.27;10.30;;;17.10;99.90;;;17.54;86.92;97065.56;5006902;28;20598;-81
2022/09/14 03:37:48;;;;;;;12.23;10.77;;;17.00;99.90;;;17.68;87.27;97088.41;5008464;28;20463;-82
2022/09/14 03:40:17;;;;;;;12.13;11.03;;;17.00;99.90;;;17.71;88.20;97089.78;5004878;28;20474;-78
2022/09/14 03:42:45;;;;;;;11.47;10.57;;;16.90;99.90;;;17.68;88.04;97082.94;5008401;28;20532;-79
2022/09/14 03:45:15;;;;;;;12.80;11.10;;;17.00;99.90;;;17.55;89.25;97083.59;5010315;28;20461;-79
2022/09/14 03:47:42;;;;;;;11.00;9.90;;;16.90;99.90;;;17.63;88.83;97087.63;5010499;28;21086;-77
2022/09/14 03:50:15;;;;;;;12.30;11.30;;;16.80;99.90;;;17.56;88.65;97079.75;5009759;28;20539;-81
2022/09/14 03:52:42;;;;;;;12.60;11.37;;;16.80;99.90;;;17.42;90.21;97090.50;5009080;28;21120;-81
2022/09/14 03:55:11;;;;;;;13.53;12.30;;;16.80;99.90;;;17.15;91.50;97067.19;5001334;28;20458;-81
2022/09/14 03:57:39;;;;;;;14.27;12.77;;;16.80;99.90;;;17.08;93.39;97069.44;5009939;28;20553;-79
2022/09/14 04:00:09;;;;;;;13.97;12.67;;;16.70;99.90;;;17.12;93.82;97054.91;5005706;28;20464;-76
2022/09/14 04:02:36;;;;;;;15.17;13.10;;;16.70;99.90;;;17.05;94.16;97042.69;5009967;28;20462;-81
2022/09/14 04:05:04;;;;;;;14.37;12.97;;;16.60;99.90;;;17.16;93.17;97033.34;5007987;28;20463;-77
2022/09/14 04:07:32;;;;;;;15.50;14.10;;;16.60;99.90;;;17.15;93.55;97036.38;5008263;28;20474;-81
2022/09/14 04:09:59;;;;;;;15.80;14.20;;;16.60;99.90;;;17.08;93.76;97020.31;5022014;28;20887;-81
2022/09/14 04:12:28;;;;;;;73.43;25.60;;;16.60;99.90;;;17.15;94.21;97009.88;5023944;28;20460;-80
2022/09/14 04:14:56;;;;;;;14.57;12.90;;;16.60;99.90;;;17.27;94.04;97017.72;4998015;28;20460;-79
2022/09/14 04:17:23;;;;;;;12.20;11.03;;;16.60;99.90;;;17.40;92.55;97024.47;5009656;28;20470;-78
2022/09/14 04:19:51;;;;;;;14.77;13.33;;;16.70;99.90;;;17.40;92.29;97032.66;5018287;28;20808;-83
2022/09/14 04:22:18;;;;;;;16.77;15.20;;;16.80;99.90;;;17.45;92.83;97046.25;5028112;28;20467;-77
2022/09/14 04:24:46;;;;;;;14.93;13.40;;;16.80;99.90;;;17.62;91.46;97051.31;5003569;28;20461;-82
2022/09/14 04:27:14;;;;;;;16.83;14.63;;;16.90;99.90;;;17.41;92.21;97031.56;5000705;28;20556;-84
2022/09/14 04:29:42;;;;;;;12.97;11.87;;;16.80;99.90;;;17.64;91.19;97049.13;5009626;28;20457;-81
2022/09/14 04:32:10;;;;;;;16.27;11.47;;;16.90;99.90;;;18.03;87.70;97033.78;5002243;28;21180;-81
2022/09/14 04:34:37;;;;;;;14.20;12.90;;;17.30;99.90;;;18.11;87.31;97024.16;5003407;28;20455;-79
2022/09/14 04:37:05;;;;;;;14.27;12.87;;;17.50;99.90;;;17.80;89.45;97025.22;5009733;28;20473;-78
2022/09/14 04:39:32;;;;;;;16.50;15.00;;;17.30;99.90;;;17.66;90.30;97035.16;5006684;28;20550;-77
2022/09/14 04:41:59;;;;;;;11.43;10.33;;;17.10;99.90;;;18.07;87.84;97034.03;5003811;28;20485;-79
2022/09/14 04:44:26;;;;;;;12.20;10.73;;;17.20;99.90;;;17.96;88.20;97022.34;4999204;28;20461;-80
2022/09/14 04:46:55;;;;;;;14.90;13.60;;;17.30;99.90;;;17.73;90.16;97008.34;4994347;28;20467;-79
2022/09/14 04:49:22;;;;;;;14.47;13.17;;;17.30;99.90;;;17.39;91.57;96984.63;5001291;28;20492;-74
2022/09/14 04:51:50;;;;;;;16.00;14.70;;;17.10;99.90;;;17.25;93.09;96985.25;5016678;28;20808;-80
2022/09/14 04:54:18;;;;;;;15.93;14.60;;;16.90;99.90;;;17.12;94.40;96972.25;5002361;28;20508;-84
2022/09/14 04:56:46;;;;;;;13.53;12.23;;;16.80;99.90;;;17.41;92.54;96966.03;5023242;28;20461;-83
2022/09/14 04:59:14;;;;;;;13.97;11.30;;;16.80;99.90;;;17.61;90.33;96972.41;5005043;28;20468;-90
2022/09/14 05:01:46;;;;;;;12.50;11.30;;;17.10;99.90;;;17.78;89.28;96989.19;5020428;28;20831;-79
2022/09/14 05:04:15;;;;;;;13.03;11.90;;;17.20;99.90;;;17.87;88.62;96988.56;4999735;28;21007;-78
2022/09/14 05:06:44;;;;;;;12.97;11.73;;;17.30;99.90;;;18.11;87.19;96997.63;5002012;28;20469;-85
2022/09/14 05:09:15;;;;;;;13.37;12.00;;;17.40;99.90;;;18.09;87.46;96997.09;4999382;28;20560;-81
2022/09/14 05:11:43;;;;;;;13.97;12.77;;;17.40;99.90;;;17.54;87.63;96942.69;5004084;28;20517;-82
2022/09/14 05:14:12;;;;;;;16.03;14.53;;;17.40;99.90;;;17.52;89.95;96997.63;4999999;28;20453;-76
2022/09/14 05:16:42;;;;;;;14.97;13.57;;;17.10;99.90;;;17.41;91.90;96996.06;5000761;28;20477;-74
2022/09/14 05:19:15;;;;;;;15.40;14.20;;;17.00;99.90;;;16.76;93.30;96918.72;4997513;28;20465;-74
2022/09/14 05:21:42;;;;;;;16.20;14.77;;;16.90;99.90;;;16.91;93.28;96928.72;5002374;28;20467;-75
2022/09/14 05:24:13;;;;;;;16.57;15.20;;;16.80;99.90;;;17.09;93.65;96973.63;4997623;28;20468;-74
2022/09/14 05:26:42;;;;;;;17.60;16.00;;;16.70;99.90;;;17.12;94.31;96978.50;5011314;28;20457;-75
2022/09/14 05:29:13;;;;;;;17.03;15.40;;;16.70;99.90;;;16.97;94.82;96973.94;5008896;28;20459;-73
2022/09/14 05:31:40;;;;;;;19.23;15.80;;;16.70;99.90;;;17.09;94.69;96967.38;5000988;28;20594;-74
2022/09/14 05:34:09;;;;;;;17.63;16.23;;;16.70;99.90;;;17.07;95.19;96964.91;5000238;28;20529;-75
2022/09/14 05:36:38;;;;;;;19.20;17.67;;;16.60;99.90;;;17.17;94.27;96965.94;5001823;28;20463;-76
2022/09/14 05:39:06;;;;;;;19.00;17.30;;;16.60;99.90;;;17.23;93.49;96951.16;5002018;28;20460;-74
2022/09/14 05:41:34;;;;;;;17.63;15.97;;;16.70;99.90;;;17.26;93.90;96950.56;5000600;28;20533;-74
2022/09/14 05:44:01;;;;;;;18.67;16.97;;;16.70;99.90;;;17.05;94.48;96953.47;5019798;28;20460;-71
2022/09/14 05:46:28;;;;;;;19.87;18.13;;;16.70;99.90;;;17.11;94.51;96935.94;5006030;28;20498;-73
2022/09/14 05:48:55;;;;;;;17.17;15.67;;;16.70;99.90;;;16.92;93.48;96892.16;5004323;28;20558;-73
2022/09/14 05:51:25;;;;;;;17.87;16.37;;;16.70;99.90;;;17.37;92.75;96949.41;5012726;28;20475;-74
2022/09/14 05:53:56;;;;;;;20.13;18.20;;;16.80;99.90;;;17.39;93.05;96951.84;5003877;28;20465;-75
2022/09/14 05:56:26;;;;;;;18.40;16.60;;;16.80;99.90;;;17.27;93.26;96947.56;5001121;28;20560;-74
2022/09/14 05:58:54;;;;;;;18.90;17.10;;;16.80;99.90;;;17.15;93.98;96938.13;4998951;28;20474;-74
2022/09/14 06:01:24;;;;;;;17.93;16.13;;;16.70;99.90;;;17.10;93.84;96920.69;5000851;28;20467;-72
2022/09/14 06:03:54;;;;;;;18.43;16.50;;;16.70;99.90;;;17.19;94.28;96937.25;5002280;28;20478;-74
2022/09/14 06:06:22;;;;;;;18.73;16.90;;;16.70;99.90;;;17.24;93.70;96931.78;5007906;28;20461;-74
2022/09/14 06:08:52;;;;;;;17.20;15.70;;;16.70;99.90;;;17.24;93.19;96937.22;5003493;28;20473;-74
2022/09/14 06:11:24;;;;;;;17.50;15.90;;;16.70;99.90;;;17.25;92.60;96922.47;5004662;28;20476;-75
2022/09/14 06:13:51;;;;;;;18.30;16.60;;;16.80;99.90;;;17.25;93.14;96922.47;5002499;28;20500;-73
2022/09/14 06:16:21;;;;;;;16.40;14.80;;;16.80;99.90;;;17.30;92.39;96924.34;4999561;28;20466;-75
2022/09/14 06:18:49;;;;;;;18.23;16.50;;;16.80;99.90;;;17.09;93.94;96919.03;4993064;28;21023;-80
2022/09/14 06:21:18;;;;;;;17.63;16.10;;;16.70;99.90;;;17.25;93.36;96913.47;5007724;28;20469;-80
2022/09/14 06:23:48;;;;;;;16.60;15.17;;;16.70;99.90;;;17.27;93.13;96924.91;4994170;28;21164;-74
2022/09/14 06:26:15;;;;;;;16.67;15.17;;;16.70;99.90;;;17.19;92.74;96899.03;4998319;28;20488;-76
2022/09/14 06:28:44;;;;;;;17.13;15.37;;;16.70;99.90;;;17.25;93.27;96906.09;5001454;28;20522;-78
2022/09/14 06:31:13;;;;;;;16.37;14.90;;;16.70;99.90;;;17.17;93.31;96903.97;5000120;28;20517;-71
2022/09/14 06:33:44;;;;;;;16.53;14.87;;;16.70;99.90;;;17.05;92.87;96862.59;5001411;28;20495;-75
2022/09/14 06:36:14;;;;;;;16.13;14.63;;;16.70;99.90;;;17.22;93.20;96901.22;4999265;28;20466;-73
2022/09/14 06:38:43;;;;;;;15.13;13.67;;;16.70;99.90;;;17.31;92.66;96904.16;4997708;28;20460;-75
2022/09/14 06:41:16;;;;;;;15.53;14.03;;;16.70;99.90;;;16.91;93.75;96874.16;5022151;28;20492;-77
2022/09/14 06:43:45;;;;;;;16.20;14.77;;;16.70;99.90;;;17.19;93.41;96901.78;5007052;28;20961;-75
2022/09/14 06:46:17;;;;;;;16.20;14.70;;;16.70;99.90;;;17.34;93.03;96902.75;5004005;28;20487;-71
2022/09/14 06:48:48;;;;;;;15.50;14.30;;;16.70;99.90;;;17.40;92.84;96907.06;4996795;28;20460;-74
2022/09/14 06:51:18;;;;;;;16.50;14.97;;;16.80;99.90;;;17.26;92.97;96907.72;5001553;28;20543;-73
2022/09/14 06:53:47;;;;;;;15.40;14.10;;;16.80;99.90;;;17.31;91.90;96901.41;4999656;28;20491;-74
2022/09/14 06:56:15;;;;;;;14.87;13.60;;;16.80;99.90;;;17.18;93.29;96916.53;5004026;28;20465;-74
2022/09/14 06:58:44;;;;;;;14.07;12.60;;;16.70;99.90;;;17.16;92.74;96913.25;5019598;28;20489;-77
2022/09/14 07:01:14;;;;;;;14.90;13.50;;;16.80;99.90;;;17.16;93.35;96912.47;4996154;28;20474;-77
2022/09/14 07:03:42;;;;;;;14.13;12.67;;;16.70;99.90;;;17.31;93.11;96922.44;4999359;28;20512;-77
2022/09/14 07:06:13;;;;;;;14.53;12.80;;;16.80;99.90;;;17.30;92.98;96924.34;4996636;28;20562;-76
2022/09/14 07:08:41;;;;;;;14.57;13.10;;;16.80;99.90;;;17.26;92.60;96913.19;5013288;28;20521;-75
2022/09/14 07:11:12;;;;;;;14.70;13.30;;;16.80;99.90;;;17.34;92.33;96919.13;4997245;28;20479;-73
2022/09/14 07:13:39;;;;;;;14.23;11.77;;;16.90;99.90;;;17.25;92.47;96921.66;4996735;28;20459;-74
2022/09/14 07:16:09;;;;;;;12.37;11.17;;;16.90;99.90;;;17.34;92.15;96919.13;4996986;28;21031;-75
2022/09/14 07:18:36;;;;;;;12.40;11.30;;;16.90;99.90;;;17.42;91.53;96922.03;4998469;28;20902;-73
2022/09/14 07:21:05;;;;;;;11.90;10.70;;;16.90;99.90;;;17.33;91.43;96922.94;5005069;28;20475;-75
2022/09/14 07:23:35;;;;;;;11.40;10.40;;;16.90;99.90;;;17.46;91.01;96916.84;5005525;28;20559;-72
2022/09/14 07:26:05;;;;;;;11.53;10.40;;;16.90;99.90;;;17.74;90.03;96913.56;5011184;28;20461;-76
2022/09/14 07:28:33;;;;;;;11.90;10.27;;;17.00;99.90;;;17.60;90.22;96910.69;5006583;28;20460;-70
2022/09/14 07:31:00;;;;;;;12.40;10.40;;;17.00;99.90;;;17.64;90.50;96922.66;5004298;28;20514;-75
2022/09/14 07:33:29;;;;;;;10.80;9.90;;;17.10;99.90;;;17.75;89.86;96907.00;5000766;28;20874;-76
2022/09/14 07:36:05;;;;;;;11.40;10.30;;;17.10;99.90;;;17.93;89.60;96917.19;4999374;28;20507;-77
2022/09/14 07:38:32;;;;;;;10.97;9.50;;;17.20;99.90;;;18.04;88.08;96914.34;5015915;28;21043;-74
2022/09/14 07:41:00;;;;;;;11.70;10.50;;;17.40;99.90;;;18.09;88.78;96911.56;5002200;28;20954;-75
2022/09/14 07:43:28;;;;;;;9.60;8.60;;;17.50;99.90;;;18.12;87.30;96917.28;5000923;28;20539;-74
2022/09/14 07:45:56;;;;;;;9.67;8.93;;;17.50;99.90;;;17.95;88.63;96905.94;5004100;28;20491;-75
2022/09/14 07:48:23;;;;;;;10.83;9.10;;;17.50;99.90;;;18.11;88.66;96906.63;5003515;28;20475;-75
2022/09/14 07:51:01;;;;;;;9.77;8.93;;;17.50;99.90;;;18.09;87.95;96906.91;4999940;28;20580;-76
2022/09/14 07:53:30;;;;;;;10.50;9.40;;;17.60;99.90;;;18.24;88.47;96918.75;5000132;28;20925;-76
2022/09/14 07:56:00;;;;;;;8.50;7.70;;;17.70;99.90;;;18.14;88.16;96902.50;5001334;28;20461;-76
2022/09/14 07:58:27;;;;;;;8.97;8.27;;;17.70;99.90;;;18.36;87.19;96910.97;5012697;28;20470;-78
2022/09/14 08:00:59;;;;;;;10.73;8.47;;;17.80;99.90;;;18.51;86.13;96918.16;4995946;28;20930;-76
2022/09/14 08:03:27;;;;;;;9.23;8.33;;;17.90;99.90;;;18.63;86.09;96919.63;5000913;28;20487;-77
2022/09/14 08:06:01;;;;;;;9.67;8.47;;;18.00;99.90;;;18.66;86.06;96919.84;5015097;28;20545;-77
2022/09/14 08:08:30;;;;;;;8.93;8.10;;;18.00;99.90;;;18.63;86.46;96914.16;5004408;28;20481;-76
2022/09/14 08:11:07;;;;;;;9.87;8.73;;;18.10;99.90;;;18.74;86.80;96923.06;5002610;28;20553;-77
2022/09/14 08:13:35;;;;;;;9.20;8.30;;;18.10;99.90;;;18.98;85.22;96922.97;5016995;28;21180;-72
2022/09/14 08:16:03;;;;;;;9.33;8.43;;;18.20;99.90;;;19.02;84.48;96925.94;5003592;28;21684;-78
2022/09/14 08:18:32;;;;;;;9.60;8.67;;;18.30;99.90;;;18.80;85.84;96919.94;5006305;28;21048;-76
2022/09/14 08:21:05;;;;;;;9.10;8.20;;;18.30;99.90;;;18.79;86.56;96925.72;5004976;28;20474;-76
2022/09/14 08:23:33;;;;;;;8.57;7.73;;;18.30;99.90;;;18.61;88.25;96910.91;5019380;28;20462;-73
2022/09/14 08:26:04;;;;;;;9.63;8.67;;;18.20;99.90;;;18.79;87.37;96914.75;5022508;28;20458;-80
2022/09/14 08:28:32;;;;;;;10.23;9.43;;;18.10;99.90;;;18.82;87.56;96927.84;4994981;28;20456;-74
2022/09/14 08:31:05;;;;;;;9.80;9.00;;;18.10;99.90;;;18.98;87.12;96925.72;4994283;28;20466;-74
2022/09/14 08:33:34;;;;;;;10.23;9.33;;;18.20;99.90;;;18.89;87.20;96925.56;5002521;28;21051;-73
2022/09/14 08:36:02;;;;;;;10.20;9.30;;;18.30;99.90;;;19.03;86.73;96919.34;4992303;28;20466;-77
2022/09/14 08:38:30;;;;;;;9.97;9.17;;;18.30;99.90;;;18.94;86.54;96914.53;4999675;28;21031;-78
2022/09/14 08:41:08;;;;;;;9.20;8.50;;;18.40;99.90;;;19.37;84.48;96921.00;5004874;28;20960;-75
2022/09/14 08:43:38;;;;;;;10.73;9.73;;;18.50;99.90;;;19.41;84.76;96922.03;5004506;28;20505;-75
2022/09/14 08:46:13;;;;;;;9.50;8.67;;;18.60;99.90;;;19.42;83.59;96874.34;5017456;28;20463;-79
2022/09/14 08:48:47;;;;;;;13.13;9.50;;;18.70;99.90;;;19.76;82.97;96917.00;5000441;28;20856;-73
2022/09/14 08:51:16;;;;;;;10.53;9.40;;;18.80;99.90;;;19.80;83.34;96907.09;4999227;28;20566;-76
2022/09/14 08:53:46;;;;;;;10.97;9.50;;;18.90;99.90;;;19.78;83.27;96922.22;5018612;28;20448;-79
2022/09/14 08:56:18;;;;;;;10.80;9.80;;;19.10;99.90;;;19.85;84.02;96916.34;5000861;28;20607;-79
2022/09/14 08:59:03;;;;;;;11.37;10.33;;;19.10;99.90;;;19.82;82.93;96918.56;4997088;28;20466;-79
2022/09/14 09:01:45;;;;;;;10.77;9.67;;;19.10;99.90;;;19.86;82.70;96926.97;4996362;28;21098;-75
2022/09/14 09:04:27;;;;;;;10.17;9.23;;;19.20;99.70;;;19.74;83.28;96916.50;5013034;28;20595;-74
2022/09/14 09:07:04;;;;;;;13.47;11.37;;;19.10;99.90;;;19.66;83.96;96928.19;4998824;28;20539;-76
2022/09/14 09:09:44;;;;;;;10.50;9.60;;;19.10;99.90;;;19.92;83.48;96927.72;4998572;28;20465;-76
2022/09/14 09:12:16;;;;;;;11.27;10.10;;;19.10;99.90;;;19.67;84.51;96935.28;5013266;28;20585;-76
2022/09/14 09:14:49;;;;;;;10.23;9.20;;;19.10;99.90;;;19.71;84.16;96936.31;5009771;28;20495;-77
2022/09/14 09:17:22;;;;;;;11.97;9.30;;;19.10;99.90;;;19.91;83.66;96940.59;4996398;28;20463;-77
2022/09/14 09:20:24;;;;;;;10.20;9.27;;;19.20;99.90;;;19.89;83.51;96947.50;5006568;28;20474;-81
2022/09/14 09:23:01;;;;;;;9.00;8.23;;;19.20;99.90;;;20.12;82.50;96933.94;5003784;28;20467;-76
2022/09/14 09:25:44;;;;;;;10.40;9.60;;;19.30;99.90;;;19.90;84.25;96938.16;5001702;28;20563;-79
2022/09/14 09:28:13;;;;;;;10.27;9.37;;;19.40;99.90;;;20.04;83.55;96939.00;5004274;28;20467;-75
2022/09/14 09:30:40;;;;;;;11.27;9.60;;;19.30;99.90;;;20.23;83.51;96951.78;4996232;28;20994;-78
2022/09/14 09:33:12;;;;;;;10.00;8.47;;;19.40;99.90;;;20.73;79.89;96963.97;5005164;28;20533;-75
2022/09/14 09:35:39;;;;;;;10.90;10.10;;;19.70;98.80;;;20.30;81.91;96971.41;4998649;28;20542;-78
2022/09/14 09:38:15;;;;;;;10.13;9.33;;;19.70;98.50;;;20.34;82.64;96958.72;5005006;28;20962;-77
2022/09/14 09:40:50;;;;;;;11.23;10.23;;;19.70;99.30;;;20.43;81.96;96961.53;5005987;28;20975;-80
2022/09/14 09:43:19;;;;;;;10.43;9.60;;;19.70;99.90;;;20.20;83.42;96975.19;5008907;28;20884;-80
2022/09/14 09:45:51;;;;;;;10.07;9.10;;;19.60;99.90;;;20.38;82.48;96976.16;5009245;28;20516;-77
2022/09/14 09:48:21;;;;;;;10.13;9.23;;;19.60;99.90;;;20.51;81.93;96973.72;5003154;28;20546;-76
2022/09/14 09:51:02;;;;;;;10.47;9.57;;;19.70;99.90;;;20.79;80.14;96980.00;4995622;28;20573;-78
2022/09/14 09:53:30;;;;;;;13.50;12.20;;;19.80;98.90;;;20.37;82.31;96988.25;5003226;28;20557;-78
2022/09/14 09:55:58;;;;;;;9.37;8.63;;;19.60;99.90;;;20.45;82.44;96999.66;5000391;28;20467;-77
2022/09/14 09:58:33;;;;;;;9.27;8.47;;;19.70;99.90;;;20.58;81.93;97007.06;5001911;28;20550;-77
2022/09/14 10:01:05;;;;;;;10.03;9.13;;;19.70;99.90;;;20.26;83.25;97011.53;5019723;28;20462;-76
2022/09/14 10:03:36;;;;;;;10.17;9.27;;;19.70;99.90;;;20.07;84.17;96993.22;5013569;28;20466;-74
2022/09/14 10:06:09;;;;;;;10.10;9.30;;;19.50;99.90;;;20.04;83.36;96963.69;5014122;28;20451;-78
2022/09/14 10:08:42;;;;;;;9.90;8.97;;;19.60;99.90;;;20.07;83.35;96954.03;5018317;28;21392;-71
2022/09/14 10:11:32;;;;;;;8.93;8.23;;;19.60;99.90;;;20.53;82.72;96996.19;5000090;28;20476;-76
2022/09/14 10:14:00;;;;;;;11.23;8.90;;;19.70;99.90;;;20.55;82.46;96985.75;4998473;28;20481;-76
2022/09/14 10:16:37;;;;;;;8.27;7.67;;;19.80;99.90;;;20.74;81.81;96987.53;5002343;28;20481;-76
2022/09/14 10:19:14;;;;;;;8.40;7.70;;;19.90;99.90;;;20.94;79.85;96932.22;4997835;28;20461;-73
2022/09/14 10:22:18;;;;;;;8.13;7.33;;;20.20;99.00;;;21.49;78.13;96955.09;5002003;28;20467;-74
2022/09/14 10:24:55;;;;;;;7.53;6.83;;;20.60;96.10;;;21.66;77.46;96945.38;5026883;28;20600;-78
2022/09/14 10:27:39;;;;;;;7.97;7.17;;;20.80;95.50;;;22.06;75.86;96945.41;5003025;28;20447;-78